Time;durP1;ratioP1;P1;durP2;ratioP2;P2;SDS_P1;SDS_P2;PMS_P1;PMS_P2;Temp;Humidity;BMP_temperature;BMP_pressure;BME280_temperature;BME280_humidity;BME280_pressure;Samples;Min_cycle;Max_cycle;Signal;HPM_P1;HPM_P2
2023/05/12 00:00:43;;;;;;;10.20;7.07;;;;;;;10.94;100.00;154170.13;5046089;28;20438;-83
2023/05/12 00:03:09;;;;;;;6.97;6.27;;;;;;;10.91;100.00;154162.34;5060419;28;20466;-83
2023/05/12 00:05:36;;;;;;;7.77;6.97;;;;;;;10.92;100.00;154163.66;5060016;28;20453;-83
2023/05/12 00:08:02;;;;;;;7.67;6.73;;;;;;;10.88;100.00;154154.56;5046400;28;20481;-83
2023/05/12 00:10:29;;;;;;;8.70;7.80;;;;;;;10.87;100.00;154152.03;5048579;28;20474;-83
2023/05/12 00:12:56;;;;;;;9.37;7.70;;;;;;;10.88;100.00;154154.56;5059735;28;20784;-83
2023/05/12 00:15:22;;;;;;;8.27;7.47;;;;;;;10.85;100.00;154146.84;5055690;28;20976;-84
2023/05/12 00:17:51;;;;;;;11.13;8.40;;;;;;;10.86;100.00;154149.41;5066203;28;20541;-83
2023/05/12 00:20:17;;;;;;;10.00;8.00;;;;;;;10.83;100.00;154141.63;5046709;28;20482;-83
2023/05/12 00:22:44;;;;;;;10.40;8.70;;;;;;;10.81;100.00;154136.47;5048353;28;20530;-83
2023/05/12 00:25:10;;;;;;;12.37;8.37;;;;;;;10.83;100.00;154141.63;5038109;28;20502;-83
2023/05/12 00:27:37;;;;;;;10.93;8.50;;;;;;;10.82;100.00;154139.06;5065730;28;20495;-83
2023/05/12 00:30:04;;;;;;;8.77;7.77;;;;;;;10.81;100.00;154136.47;5032625;28;20529;-83
2023/05/12 00:32:31;;;;;;;12.40;9.07;;;;;;;10.80;100.00;154132.59;5057496;28;20551;-83
2023/05/12 00:34:59;;;;;;;11.37;9.77;;;;;;;10.79;100.00;154130.00;5055895;28;20457;-83
2023/05/12 00:37:25;;;;;;;12.00;9.93;;;;;;;10.79;100.00;154131.28;5050267;28;20538;-83
2023/05/12 00:39:52;;;;;;;10.83;8.73;;;;;;;10.79;100.00;154131.28;5050377;28;20446;-83
2023/05/12 00:42:18;;;;;;;9.73;8.30;;;;;;;10.83;100.00;154141.63;5057716;28;20995;-83
2023/05/12 00:44:46;;;;;;;12.17;9.00;;;;;;;10.77;100.00;154126.13;5053422;28;20516;-83
2023/05/12 00:47:12;;;;;;;11.30;8.83;;;;;;;10.80;100.00;154132.59;5064906;28;20461;-83
2023/05/12 00:49:41;;;;;;;9.90;8.90;;;;;;;10.82;100.00;154139.06;5030435;28;20827;-83
2023/05/12 00:52:09;;;;;;;11.60;10.30;;;;;;;10.85;100.00;154146.84;5064413;28;20462;-83
2023/05/12 00:54:36;;;;;;;9.60;8.60;;;;;;;10.81;100.00;154135.16;5044777;28;20447;-83
2023/05/12 00:57:03;;;;;;;10.37;9.27;;;;;;;10.80;100.00;154133.84;5048474;28;20540;-83
2023/05/12 00:59:30;;;;;;;11.87;9.70;;;;;;;10.76;100.00;154123.53;5028695;28;20501;-83
2023/05/12 01:01:57;;;;;;;11.57;9.90;;;;;;;10.76;100.00;154122.22;5037721;28;20537;-83
2023/05/12 01:04:25;;;;;;;13.90;11.10;;;;;;;10.72;100.00;154113.13;5028630;28;20518;-83
2023/05/12 01:06:55;;;;;;;12.63;10.77;;;;;;;10.75;100.00;154120.91;5031262;28;20453;-83
2023/05/12 01:09:23;;;;;;;11.97;10.67;;;;;;;10.72;100.00;154111.88;5035145;28;20452;-83
2023/05/12 01:11:50;;;;;;;13.00;11.00;;;;;;;10.69;100.00;154105.41;5037378;28;20503;-83
2023/05/12 01:14:18;;;;;;;12.40;10.37;;;;;;;10.68;100.00;154102.78;5046826;28;20510;-83
2023/05/12 01:16:48;;;;;;;13.03;10.90;;;;;;;10.71;100.00;154110.56;5046254;28;20461;-83
2023/05/12 01:19:24;;;;;;;14.70;10.83;;;;;;;10.69;100.00;154105.41;5038970;28;20440;-83
2023/05/12 01:21:51;;;;;;;13.50;11.87;;;;;;;10.75;100.00;154119.66;5038004;28;20552;-83
2023/05/12 01:24:20;;;;;;;11.63;10.43;;;;;;;10.74;100.00;154118.34;5031772;28;20481;-83
2023/05/12 01:26:48;;;;;;;13.57;11.50;;;;;;;10.74;100.00;154117.03;5032721;28;21093;-83
2023/05/12 01:29:15;;;;;;;15.47;12.63;;;;;;;10.72;100.00;154113.13;5029718;28;20457;-83
2023/05/12 01:31:42;;;;;;;14.03;11.57;;;;;;;10.72;100.00;154113.13;5048727;28;20476;-82
2023/05/12 01:34:09;;;;;;;15.73;12.40;;;;;;;10.71;100.00;154109.28;5047638;28;21019;-83
2023/05/12 01:36:35;;;;;;;14.37;11.67;;;;;;;10.68;100.00;154102.78;5029711;28;20508;-83
2023/05/12 01:39:02;;;;;;;15.30;12.47;;;;;;;10.65;100.00;154095.03;5045434;28;20927;-83
2023/05/12 01:41:29;;;;;;;14.93;12.17;;;;;;;10.63;100.00;154089.84;5032424;28;20755;-83
2023/05/12 01:43:57;;;;;;;15.77;13.03;;;;;;;10.61;100.00;154084.69;5012622;28;20985;-83
2023/05/12 01:46:24;;;;;;;15.87;13.30;;;;;;;10.61;100.00;154084.69;5039972;28;20445;-82
2023/05/12 01:48:53;;;;;;;15.07;12.50;;;;;;;10.61;100.00;154084.69;5030084;28;20477;-82
2023/05/12 01:51:19;;;;;;;18.07;13.03;;;;;;;10.62;100.00;154087.25;5029857;28;20462;-82
2023/05/12 01:53:46;;;;;;;18.57;14.90;;;;;;;10.66;100.00;154096.31;5039666;28;20484;-82
2023/05/12 01:56:13;;;;;;;18.50;14.30;;;;;;;10.65;100.00;154095.03;5041633;28;20455;-82
2023/05/12 01:58:40;;;;;;;19.47;14.23;;;;;;;10.68;100.00;154102.78;5044631;28;20584;-82
2023/05/12 02:01:07;;;;;;;18.47;13.20;;;;;;;10.65;100.00;154095.03;5029347;28;20450;-82
2023/05/12 02:03:34;;;;;;;14.70;12.33;;;;;;;10.62;100.00;154087.25;5042140;28;20526;-82
2023/05/12 02:06:00;;;;;;;16.53;12.67;;;;;;;10.62;100.00;154085.94;5048519;28;20810;-82
2023/05/12 02:08:27;;;;;;;12.40;10.63;;;;;;;10.60;100.00;154082.06;5047251;28;20547;-82
2023/05/12 02:11:04;;;;;;;12.47;10.60;;;;;;;10.60;100.00;154082.06;5042506;28;21070;-82
2023/05/12 02:13:31;;;;;;;13.73;10.70;;;;;;;10.60;100.00;154080.78;5029901;28;20503;-82
2023/05/12 02:15:57;;;;;;;14.77;11.27;;;;;;;10.60;100.00;154082.06;5051187;28;20449;-82
2023/05/12 02:18:25;;;;;;;13.50;10.83;;;;;;;10.58;100.00;154076.91;5036165;28;20573;-82
2023/05/12 02:20:53;;;;;;;14.90;11.40;;;;;;;10.59;100.00;154078.22;5044491;28;20449;-83
2023/05/12 02:23:19;;;;;;;12.47;10.60;;;;;;;10.59;100.00;154078.22;5038983;28;20453;-82
2023/05/12 02:25:46;;;;;;;16.23;11.80;;;;;;;10.59;100.00;154079.47;5041996;28;20463;-82
2023/05/12 02:28:12;;;;;;;13.53;11.10;;;;;;;10.57;100.00;154073.00;5050820;28;20459;-82
2023/05/12 02:30:45;;;;;;;14.30;11.00;;;;;;;10.58;100.00;154076.91;5040140;28;21027;-82
2023/05/12 02:33:11;;;;;;;15.67;11.57;;;;;;;10.56;100.00;154070.44;5030641;28;21048;-82
2023/05/12 02:35:39;;;;;;;17.27;13.20;;;;;;;10.54;100.00;154065.28;5021075;28;20454;-82
2023/05/12 02:38:06;;;;;;;13.80;10.93;;;;;;;10.53;100.00;154063.97;5049772;28;20582;-82
2023/05/12 02:40:32;;;;;;;12.83;10.63;;;;;;;10.52;100.00;154061.34;5035281;28;20460;-82
2023/05/12 02:42:59;;;;;;;15.20;11.87;;;;;;;10.50;100.00;154056.19;5062962;28;20478;-82
2023/05/12 02:45:26;;;;;;;15.70;13.10;;;;;;;10.51;100.00;154057.50;5033501;28;20433;-82
2023/05/12 02:47:53;;;;;;;16.50;12.37;;;;;;;10.51;100.00;154057.50;5032602;28;20487;-82
2023/05/12 02:50:20;;;;;;;13.87;11.87;;;;;;;10.55;100.00;154069.13;5033240;28;20460;-82
2023/05/12 02:52:48;;;;;;;16.93;12.73;;;;;;;10.64;100.00;154092.47;5045455;28;20449;-82
2023/05/12 02:55:15;;;;;;;14.20;11.83;;;;;;;10.59;100.00;154078.22;5033590;28;20465;-82
2023/05/12 02:57:42;;;;;;;16.73;12.60;;;;;;;10.60;100.00;154082.06;5051168;28;20485;-82
2023/05/12 03:00:11;;;;;;;14.57;11.90;;;;;;;10.57;100.00;154073.00;5051314;28;20461;-82
2023/05/12 03:02:39;;;;;;;16.00;12.33;;;;;;;10.59;100.00;154078.22;5021959;28;20511;-83
2023/05/12 03:05:08;;;;;;;15.60;13.00;;;;;;;10.57;100.00;154073.00;5037963;28;20822;-83
2023/05/12 03:07:35;;;;;;;14.53;11.33;;;;;;;10.58;100.00;154076.91;5048379;28;20460;-83
2023/05/12 03:10:04;;;;;;;15.33;12.83;;;;;;;10.53;100.00;154063.97;5032965;28;20461;-82
2023/05/12 03:12:31;;;;;;;14.03;11.27;;;;;;;10.51;100.00;154058.75;5033738;28;20452;-83
2023/05/12 03:14:58;;;;;;;17.37;12.57;;;;;;;10.49;100.00;154052.28;5033392;28;20506;-83
2023/05/12 03:17:25;;;;;;;15.40;13.00;;;;;;;10.49;100.00;154053.59;5042729;28;20497;-83
2023/05/12 03:19:52;;;;;;;13.47;10.70;;;;;;;10.52;100.00;154060.06;5042729;28;20944;-82
2023/05/12 03:22:19;;;;;;;13.60;10.87;;;;;;;10.54;100.00;154066.53;5050045;28;20461;-82
2023/05/12 03:24:46;;;;;;;17.87;11.87;;;;;;;10.53;100.00;154062.66;5033280;28;20480;-83
2023/05/12 03:27:13;;;;;;;13.97;11.40;;;;;;;10.49;100.00;154053.59;5038172;28;20457;-83
2023/05/12 03:29:40;;;;;;;14.83;13.07;;;;;;;10.46;100.00;154044.56;5031751;28;20454;-83
2023/05/12 03:32:08;;;;;;;15.10;11.57;;;;;;;10.48;100.00;154051.03;5032895;28;20864;-83
2023/05/12 03:34:35;;;;;;;14.87;12.10;;;;;;;10.47;100.00;154048.41;5045834;28;20450;-83
2023/05/12 03:37:01;;;;;;;16.13;11.90;;;;;;;10.43;100.00;154038.09;5045595;28;20465;-82
2023/05/12 03:39:28;;;;;;;16.10;13.40;;;;;;;10.45;100.00;154043.25;5047975;28;20488;-82
2023/05/12 03:41:54;;;;;;;15.37;11.70;;;;;;;10.46;100.00;154045.81;5049215;28;20443;-82
2023/05/12 03:44:22;;;;;;;17.00;13.20;;;;;;;10.45;100.00;154043.25;5039215;28;20515;-82
2023/05/12 03:46:50;;;;;;;15.50;12.37;;;;;;;10.44;100.00;154040.63;5028283;28;20444;-82
2023/05/12 03:49:16;;;;;;;15.37;12.03;;;;;;;10.48;100.00;154051.03;5045823;28;20443;-82
2023/05/12 03:51:43;;;;;;;13.93;11.57;;;;;;;10.51;100.00;154058.75;5047559;28;20449;-83
2023/05/12 03:54:09;;;;;;;19.67;13.50;;;;;;;10.52;100.00;154061.34;5044890;28;20463;-83
2023/05/12 03:56:36;;;;;;;15.07;11.10;;;;;;;10.49;100.00;154053.59;5032576;28;20962;-82
2023/05/12 03:59:02;;;;;;;14.30;11.43;;;;;;;10.48;100.00;154051.03;5032819;28;20552;-83
2023/05/12 04:01:30;;;;;;;13.90;11.30;;;;;;;10.48;100.00;154049.72;5044712;28;20877;-83
2023/05/12 04:03:57;;;;;;;14.73;10.90;;;;;;;10.44;100.00;154040.63;5046488;28;20446;-83
2023/05/12 04:06:23;;;;;;;14.47;11.13;;;;;;;10.43;100.00;154038.09;5030188;28;20998;-83
2023/05/12 04:08:50;;;;;;;13.20;10.47;;;;;;;10.42;100.00;154035.47;5050155;28;20453;-83
2023/05/12 04:11:20;;;;;;;14.20;12.60;;;;;;;10.44;100.00;154039.34;5046755;28;20589;-83
2023/05/12 04:13:46;;;;;;;14.53;11.87;;;;;;;10.40;100.00;154030.31;5029808;28;20478;-83
2023/05/12 04:16:14;;;;;;;17.37;11.17;;;;;;;10.38;100.00;154026.41;5027222;28;20811;-83
2023/05/12 04:18:41;;;;;;;14.77;11.50;;;;;;;10.38;100.00;154026.41;5045688;28;20484;-83
2023/05/12 04:21:08;;;;;;;16.13;11.63;;;;;;;10.38;100.00;154026.41;5049818;28;20450;-83
2023/05/12 04:23:35;;;;;;;15.50;11.37;;;;;;;10.39;100.00;154029.00;5045229;28;20468;-83
2023/05/12 04:26:04;;;;;;;14.60;11.70;;;;;;;10.41;100.00;154032.88;5043604;28;20458;-83
2023/05/12 04:28:30;;;;;;;16.70;12.70;;;;;;;10.40;100.00;154030.31;5052121;28;20455;-83
2023/05/12 04:31:01;;;;;;;18.17;13.53;;;;;;;10.44;100.00;154039.34;5038360;28;20491;-83
2023/05/12 04:33:28;;;;;;;17.90;12.87;;;;;;;10.44;100.00;154040.63;5025770;28;20467;-83
2023/05/12 04:35:57;;;;;;;14.53;11.77;;;;;;;10.44;100.00;154040.63;5030119;28;20490;-83
2023/05/12 04:38:23;;;;;;;14.07;11.47;;;;;;;10.47;100.00;154048.41;5045654;28;20486;-82
2023/05/12 04:40:57;;;;;;;13.37;11.93;;;;;;;10.44;100.00;154039.34;5043460;28;20568;-83
2023/05/12 04:43:24;;;;;;;14.93;12.20;;;;;;;10.45;100.00;154041.94;5028940;28;20549;-83
2023/05/12 04:45:52;;;;;;;15.50;11.87;;;;;;;10.48;100.00;154049.72;5044335;28;20453;-83
2023/05/12 04:48:20;;;;;;;15.90;12.70;;;;;;;10.41;100.00;154032.88;5057433;28;20826;-83
2023/05/12 04:50:47;;;;;;;13.00;10.33;;;;;;;10.44;100.00;154040.63;5063452;28;20490;-83
2023/05/12 04:53:16;;;;;;;15.00;10.40;;;;;;;10.42;100.00;154034.16;5030118;28;20465;-83
2023/05/12 04:55:44;;;;;;;13.77;11.70;;;;;;;10.37;100.00;154023.84;5023577;28;20559;-83
2023/05/12 04:58:12;;;;;;;14.97;11.43;;;;;;;10.45;100.00;154043.25;5022510;28;20495;-83
2023/05/12 05:00:39;;;;;;;14.30;11.07;;;;;;;10.49;100.00;154053.59;5029079;28;20522;-83
2023/05/12 05:03:06;;;;;;;14.70;12.30;;;;;;;10.49;100.00;154053.59;5030428;28;20473;-83
2023/05/12 05:05:32;;;;;;;14.67;11.63;;;;;;;10.48;100.00;154051.03;5044139;28;20464;-83
2023/05/12 05:07:59;;;;;;;13.50;11.10;;;;;;;10.47;100.00;154047.13;5042735;28;20811;-83
2023/05/12 05:10:27;;;;;;;16.77;11.60;;;;;;;10.46;100.00;154045.81;5054687;28;20451;-82
2023/05/12 05:12:53;;;;;;;13.83;10.47;;;;;;;10.46;100.00;154044.56;5042988;28;20451;-83
2023/05/12 05:15:20;;;;;;;14.20;12.53;;;;;;;10.47;100.00;154048.41;5039355;28;20831;-83
2023/05/12 05:17:48;;;;;;;22.27;13.27;;;;;;;10.50;100.00;154056.19;5043876;28;20978;-82
2023/05/12 05:20:16;;;;;;;14.23;10.93;;;;;;;10.57;100.00;154074.31;5053568;28;20502;-83
2023/05/12 05:22:43;;;;;;;16.97;12.37;;;;;;;10.54;100.00;154066.53;5027547;28;20461;-83
2023/05/12 05:25:10;;;;;;;15.23;11.70;;;;;;;10.55;100.00;154069.13;5029852;28;20452;-83
2023/05/12 05:27:38;;;;;;;18.67;12.70;;;;;;;10.56;100.00;154070.44;5044702;28;20523;-83
2023/05/12 05:30:07;;;;;;;16.00;12.67;;;;;;;10.56;100.00;154071.75;5041095;28;20490;-83
2023/05/12 05:32:35;;;;;;;13.90;11.07;;;;;;;10.61;100.00;154084.69;5043122;28;20490;-83
2023/05/12 05:35:02;;;;;;;15.70;10.53;;;;;;;10.66;100.00;154096.31;5042060;28;20463;-83
2023/05/12 05:37:29;;;;;;;13.63;12.17;;;;;;;10.65;100.00;154093.72;5026748;28;20877;-83
2023/05/12 05:39:56;;;;;;;14.10;12.17;;;;;;;10.63;100.00;154089.84;5030144;28;20483;-83
2023/05/12 05:42:23;;;;;;;14.77;12.23;;;;;;;10.60;100.00;154082.06;5056640;28;20788;-83
2023/05/12 05:44:51;;;;;;;18.70;12.07;;;;;;;10.59;100.00;154078.22;5046274;28;20445;-83
2023/05/12 05:47:18;;;;;;;15.40;12.90;;;;;;;10.63;100.00;154089.84;5023822;28;20883;-83
2023/05/12 05:49:45;;;;;;;15.03;11.43;;;;;;;10.67;100.00;154100.19;5027986;28;20440;-83
2023/05/12 05:52:15;;;;;;;14.40;12.40;;;;;;;10.69;100.00;154104.09;5045011;28;20467;-83
2023/05/12 05:54:41;;;;;;;15.00;12.10;;;;;;;10.73;100.00;154114.44;5043309;28;20544;-77
2023/05/12 05:57:11;;;;;;;14.97;12.40;;;;;;;10.75;100.00;154120.91;5049734;28;20502;-77
2023/05/12 05:59:37;;;;;;;13.63;11.87;;;;;;;10.71;100.00;154110.56;5049771;28;20961;-76
2023/05/12 06:02:06;;;;;;;14.47;11.80;;;;;;;10.71;100.00;154110.56;5031694;28;20466;-76
2023/05/12 06:04:32;;;;;;;14.40;10.90;;;;;;;10.79;100.00;154130.00;5048765;28;20610;-76
2023/05/12 06:06:59;;;;;;;15.30;11.67;;;;;;;10.81;100.00;154136.47;5029885;28;20510;-76
2023/05/12 06:09:27;;;;;;;16.17;12.10;;;;;;;10.84;100.00;154142.94;5060481;28;20451;-75
2023/05/12 06:11:54;;;;;;;14.13;11.30;;;;;;;10.82;100.00;154139.06;5044917;28;20457;-75
2023/05/12 06:14:21;;;;;;;14.13;11.37;;;;;;;10.87;100.00;154152.03;5046290;28;20450;-75
2023/05/12 06:16:47;;;;;;;15.90;10.70;;;;;;;10.95;100.00;154172.75;5049409;28;20454;-76
2023/05/12 06:19:15;;;;;;;14.07;11.77;;;;;;;10.96;100.00;154175.31;5051644;28;20921;-76
2023/05/12 06:21:42;;;;;;;14.37;11.87;;;;;;;11.01;100.00;154188.25;5049753;28;20450;-76
2023/05/12 06:24:08;;;;;;;11.80;10.10;;;;;;;11.09;100.00;154206.41;5046679;28;20456;-76
2023/05/12 06:26:36;;;;;;;12.67;10.30;;;;;;;11.13;100.00;154216.75;5049167;28;20457;-76
2023/05/12 06:29:03;;;;;;;9.63;8.07;;;;;;;11.08;100.00;154205.13;5027487;28;20465;-76
2023/05/12 06:31:29;;;;;;;9.90;8.90;;;;;;;11.07;100.00;154201.25;5047212;28;20998;-76
2023/05/12 06:33:56;;;;;;;13.77;9.97;;;;;;;11.09;100.00;154206.41;5060745;28;20489;-76
2023/05/12 06:36:24;;;;;;;10.53;9.07;;;;;;;11.10;100.00;154208.97;5063460;28;20458;-76
2023/05/12 06:38:51;;;;;;;12.77;8.87;;;;;;;11.15;100.00;154223.22;5048898;28;20485;-76
2023/05/12 06:41:17;;;;;;;10.80;9.10;;;;;;;11.19;100.00;154232.31;5046563;28;20461;-76
2023/05/12 06:43:44;;;;;;;11.43;9.73;;;;;;;11.15;100.00;154221.94;5026716;28;20453;-76
2023/05/12 06:46:13;;;;;;;12.60;10.00;;;;;;;11.14;100.00;154219.38;5026701;28;20479;-76
2023/05/12 06:48:45;;;;;;;12.80;9.40;;;;;;;11.20;100.00;154234.94;5034082;28;20811;-76
2023/05/12 06:51:11;;;;;;;9.70;8.30;;;;;;;11.25;100.00;154249.13;5047746;28;20539;-76
2023/05/12 06:53:40;;;;;;;10.50;9.00;;;;;;;11.26;100.00;154251.75;5048854;28;21086;-76
2023/05/12 06:56:07;;;;;;;12.07;8.80;;;;;;;11.33;100.00;154268.59;5056263;28;20450;-76
2023/05/12 06:58:33;;;;;;;12.20;9.30;;;;;;;11.39;100.00;154285.41;5044123;28;20471;-76
2023/05/12 07:01:00;;;;;;;12.30;11.00;;;;;;;11.43;100.00;154294.50;5062177;28;20826;-76
2023/05/12 07:03:26;;;;;;;9.97;8.73;;;;;;;11.39;100.00;154284.13;5042510;28;20474;-76
2023/05/12 07:05:53;;;;;;;10.37;9.17;;;;;;;11.39;100.00;154284.13;5054638;28;20460;-75
2023/05/12 07:08:19;;;;;;;12.00;9.90;;;;;;;11.40;100.00;154286.72;5057592;28;20476;-75
2023/05/12 07:10:47;;;;;;;12.20;10.10;;;;;;;11.49;100.00;154311.31;5064514;28;20447;-77
2023/05/12 07:13:13;;;;;;;10.47;8.83;;;;;;;11.48;100.00;154307.47;5055870;28;20521;-77
2023/05/12 07:15:40;;;;;;;11.80;10.30;;;;;;;11.50;100.00;154313.94;5058434;28;20439;-77
2023/05/12 07:18:06;;;;;;;13.17;9.97;;;;;;;11.52;100.00;154317.81;5040044;28;20463;-77
2023/05/12 07:20:33;;;;;;;11.50;9.60;;;;;;;11.57;100.00;154330.75;5049164;28;21275;-77
2023/05/12 07:22:59;;;;;;;11.40;10.07;;;;;;;11.66;100.00;154354.09;5045638;28;20549;-77
2023/05/12 07:25:27;;;;;;;12.73;10.80;;;;;;;11.75;100.00;154376.19;5024083;28;20451;-77
2023/05/12 07:27:54;;;;;;;12.67;9.33;;;;;;;11.73;100.00;154372.28;5046803;28;20958;-77
2023/05/12 07:30:21;;;;;;;11.80;10.50;;;;;;;11.82;100.00;154394.31;5054520;28;20452;-76
2023/05/12 07:32:48;;;;;;;13.53;10.57;;;;;;;11.89;100.00;154412.44;5044812;28;21001;-77
2023/05/12 07:35:14;;;;;;;12.90;10.57;;;;;;;11.87;100.00;154408.56;5042580;28;20873;-77
2023/05/12 07:37:41;;;;;;;13.40;11.67;;;;;;;11.91;100.00;154417.66;5048530;28;20459;-76
2023/05/12 07:40:08;;;;;;;14.67;11.30;;;;;;;11.96;100.00;154431.94;5038372;28;20479;-77
2023/05/12 07:42:36;;;;;;;13.00;10.67;;;;;;;12.04;100.00;154452.69;5037362;28;20465;-76
2023/05/12 07:45:05;;;;;;;14.10;11.10;;;;;;;12.07;100.00;154459.16;5048178;28;20459;-76
2023/05/12 07:47:31;;;;;;;13.10;11.80;;;;;;;11.99;100.00;154439.66;5038959;28;20478;-77
2023/05/12 07:49:58;;;;;;;13.27;10.43;;;;;;;12.14;100.00;154478.59;5042412;28;20455;-77
2023/05/12 07:52:24;;;;;;;14.57;11.67;;;;;;;12.14;100.00;154478.59;5050465;28;21090;-77
2023/05/12 07:54:51;;;;;;;10.70;8.97;;;;;;;12.16;100.00;154483.78;5037369;28;20467;-77
2023/05/12 07:57:17;;;;;;;10.73;9.00;;;;;;;12.23;100.00;154501.91;5060830;28;20459;-76
2023/05/12 07:59:44;;;;;;;8.70;6.77;;;;;;;12.34;100.00;154527.88;5052263;28;21019;-77
2023/05/12 08:02:11;;;;;;;8.80;7.90;;;;;;;12.32;100.00;154522.66;5056446;28;20501;-77
2023/05/12 08:04:38;;;;;;;7.03;6.13;;;;;;;12.29;100.00;154514.84;5042670;28;20459;-83
2023/05/12 08:07:24;;;;;;;7.90;6.87;;;;;;;12.25;100.00;154504.50;5061691;28;20465;-76
2023/05/12 08:10:10;;;;;;;8.67;6.10;;;;;;;12.27;100.00;154509.69;5031040;28;20428;-76
2023/05/12 08:12:36;;;;;;;6.93;6.23;;;;;;;12.38;100.00;154538.22;5041215;28;20921;-76
2023/05/12 08:15:03;;;;;;;8.37;6.87;;;;;;;12.38;100.00;154539.53;5031526;28;20467;-76
2023/05/12 08:17:31;;;;;;;6.27;5.67;;;;;;;12.41;100.00;154547.31;5058839;28;20491;-76
2023/05/12 08:19:58;;;;;;;6.23;5.20;;;;;;;12.55;100.00;154583.59;5041702;28;20548;-76
2023/05/12 08:22:24;;;;;;;6.07;5.47;;;;;;;12.55;100.00;154582.34;5061499;28;20455;-76
2023/05/12 08:24:51;;;;;;;7.40;5.70;;;;;;;12.71;100.00;154625.09;5059334;28;20454;-77
2023/05/12 08:27:18;;;;;;;6.50;5.90;;;;;;;12.76;100.00;154638.06;5049676;28;20816;-76
2023/05/12 08:29:44;;;;;;;5.57;4.97;;;;;;;12.84;100.00;154658.81;5042592;28;20456;-76
2023/05/12 08:32:11;;;;;;;4.60;4.20;;;;;;;12.88;100.00;154666.59;5052281;28;20476;-76
2023/05/12 08:34:39;;;;;;;6.30;4.50;;;;;;;12.85;100.00;154660.13;5052758;28;20444;-77
2023/05/12 08:37:06;;;;;;;6.00;5.13;;;;;;;12.83;100.00;154654.94;5054680;28;20467;-77
2023/05/12 08:39:32;;;;;;;5.50;4.80;;;;;;;12.81;100.00;154651.03;5059734;28;20516;-76
2023/05/12 08:42:09;;;;;;;5.80;4.50;;;;;;;12.79;100.00;154645.84;5056302;28;20471;-76
2023/05/12 08:44:36;;;;;;;4.87;4.30;;;;;;;12.86;100.00;154662.72;5048630;28;20990;-77
2023/05/12 08:47:04;;;;;;;5.10;4.23;;;;;;;12.89;100.00;154669.22;5046739;28;20471;-76
2023/05/12 08:49:32;;;;;;;5.40;4.87;;;;;;;12.89;100.00;154669.22;5029282;28;20941;-76
2023/05/12 08:52:02;;;;;;;6.30;5.70;;;;;;;12.88;100.00;154667.91;5060484;28;20464;-77
2023/05/12 08:54:29;;;;;;;5.63;4.80;;;;;;;12.85;100.00;154660.13;5040618;28;20451;-76
2023/05/12 08:56:56;;;;;;;4.50;4.10;;;;;;;12.88;100.00;154667.91;5038308;28;20455;-77
2023/05/12 08:59:24;;;;;;;4.37;3.97;;;;;;;12.92;100.00;154678.25;5049519;28;20963;-76
2023/05/12 09:01:50;;;;;;;4.90;3.80;;;;;;;12.98;100.00;154693.84;5047406;28;20443;-76
2023/05/12 09:04:17;;;;;;;5.53;3.60;;;;;;;12.88;100.00;154667.91;5048136;28;20444;-76
2023/05/12 09:06:44;;;;;;;4.27;3.50;;;;;;;12.86;100.00;154662.72;5032693;28;20514;-76
2023/05/12 09:09:13;;;;;;;4.73;4.20;;;;;;;12.92;100.00;154678.25;5064117;28;20496;-76
2023/05/12 09:11:40;;;;;;;4.60;4.10;;;;;;;12.98;100.00;154693.84;5044065;28;20446;-76
2023/05/12 09:14:09;;;;;;;4.10;3.70;;;;;;;13.06;100.00;154713.28;5052423;28;20442;-76
2023/05/12 09:16:48;;;;;;;4.23;3.53;;;;;;;13.03;100.00;154705.50;5039896;28;20449;-76
2023/05/12 09:19:19;;;;;;;3.90;3.50;;;;;;;13.07;100.00;154715.97;5044090;28;20453;-76
2023/05/12 09:21:45;;;;;;;3.77;3.30;;;;;;;13.16;100.00;154739.28;5048986;28;20428;-76
2023/05/12 09:24:13;;;;;;;4.20;3.50;;;;;;;13.30;100.00;154776.94;5058571;28;20460;-77
2023/05/12 09:26:47;;;;;;;3.80;3.33;;;;;;;13.37;99.71;154795.09;5051064;28;20455;-76
2023/05/12 09:29:15;;;;;;;3.00;2.70;;;;;;;13.43;99.63;154809.38;5051285;28;20460;-76
2023/05/12 09:31:49;;;;;;;3.50;3.20;;;;;;;13.47;98.10;154818.47;5052857;28;20489;-78
2023/05/12 09:34:16;;;;;;;2.90;2.57;;;;;;;13.53;98.27;154834.06;5044649;28;20436;-77
2023/05/12 09:36:44;;;;;;;3.30;2.87;;;;;;;13.72;97.26;154883.34;5042506;28;20544;-77
2023/05/12 09:39:12;;;;;;;3.13;2.77;;;;;;;13.90;96.16;154930.06;5044084;28;20460;-76
2023/05/12 09:41:40;;;;;;;5.63;3.20;;;;;;;14.01;95.42;154959.94;5043334;28;21014;-76
2023/05/12 09:44:08;;;;;;;3.80;3.10;;;;;;;14.02;97.14;154961.25;5039969;28;20990;-77
2023/05/12 09:46:35;;;;;;;3.83;3.30;;;;;;;14.08;95.36;154975.53;5047804;28;20540;-76
2023/05/12 09:49:02;;;;;;;3.70;3.13;;;;;;;14.09;94.50;154979.41;5052278;28;20478;-77
2023/05/12 09:51:29;;;;;;;3.73;3.37;;;;;;;14.06;94.74;154970.34;5063695;28;20445;-77
2023/05/12 09:53:56;;;;;;;4.27;3.30;;;;;;;14.06;94.68;154970.34;5045280;28;20513;-76
2023/05/12 09:56:27;;;;;;;4.60;4.20;;;;;;;14.13;94.94;154989.81;5054822;28;20509;-76
2023/05/12 09:58:56;;;;;;;5.03;4.50;;;;;;;14.16;95.09;154997.59;5034608;28;20461;-76
2023/05/12 10:01:24;;;;;;;5.83;4.00;;;;;;;14.23;94.29;155014.47;5053860;28;20486;-78
2023/05/12 10:03:53;;;;;;;4.03;3.63;;;;;;;14.20;93.40;155007.97;5042863;28;20510;-76
2023/05/12 10:06:21;;;;;;;5.10;4.60;;;;;;;14.30;93.85;155033.94;5051762;28;20456;-78
2023/05/12 10:08:51;;;;;;;4.50;4.10;;;;;;;14.25;92.78;155020.94;5060485;28;20469;-78
2023/05/12 10:11:17;;;;;;;5.07;4.20;;;;;;;14.23;91.73;155015.78;5061694;28;20461;-77
2023/05/12 10:13:45;;;;;;;5.10;4.10;;;;;;;14.30;91.34;155033.94;5039760;28;20455;-76
2023/05/12 10:16:12;;;;;;;4.80;4.23;;;;;;;14.36;91.01;155049.59;5048105;28;20450;-76
2023/05/12 10:18:39;;;;;;;6.30;4.23;;;;;;;14.35;92.28;155046.97;5042326;28;20517;-77
2023/05/12 10:21:07;;;;;;;5.10;4.60;;;;;;;14.33;92.57;155041.78;5046675;28;20483;-77
2023/05/12 10:23:34;;;;;;;5.63;4.80;;;;;;;14.43;93.87;155066.44;5061329;28;20845;-77
2023/05/12 10:26:02;;;;;;;5.30;4.80;;;;;;;14.47;94.32;155076.84;5028494;28;20826;-77
2023/05/12 10:28:28;;;;;;;5.33;4.83;;;;;;;14.60;92.78;155111.94;5051958;28;20470;-77
2023/05/12 10:30:57;;;;;;;6.67;5.20;;;;;;;14.66;92.34;155126.22;5055416;28;20792;-77
2023/05/12 10:33:24;;;;;;;5.23;4.73;;;;;;;14.67;95.24;155127.53;5054015;28;20477;-77
2023/05/12 10:35:52;;;;;;;5.57;4.97;;;;;;;14.71;99.63;155139.22;5056048;28;20455;-77
2023/05/12 10:38:19;;;;;;;5.10;4.60;;;;;;;14.69;92.99;155132.72;5030606;28;20866;-77
2023/05/12 10:40:53;;;;;;;4.57;4.10;;;;;;;14.50;91.29;155085.97;5050004;28;20486;-77
2023/05/12 10:43:23;;;;;;;5.77;4.60;;;;;;;14.41;93.16;155062.56;5040453;28;20504;-77
2023/05/12 10:46:15;;;;;;;4.43;4.03;;;;;;;14.48;94.45;155079.47;5051057;28;21023;-77
2023/05/12 10:48:51;;;;;;;5.77;4.57;;;;;;;14.31;94.46;155036.59;5060601;28;20463;-77
2023/05/12 10:51:19;;;;;;;6.10;4.80;;;;;;;14.17;95.22;154998.88;5067613;28;20492;-77
2023/05/12 10:53:46;;;;;;;6.47;5.10;;;;;;;14.00;95.71;154956.06;5062521;28;20508;-77
2023/05/12 10:56:13;;;;;;;5.33;4.33;;;;;;;13.95;97.53;154943.09;5046584;28;20438;-76
2023/05/12 10:59:08;;;;;;;4.90;4.40;;;;;;;13.93;98.70;154939.16;5057975;28;20457;-77
2023/05/12 11:01:36;;;;;;;5.00;4.40;;;;;;;13.88;100.00;154924.88;5031599;28;20485;-77
2023/05/12 11:04:11;;;;;;;6.43;5.80;;;;;;;13.85;100.00;154917.06;5061787;28;20444;-77
2023/05/12 11:06:38;;;;;;;5.00;4.50;;;;;;;13.75;100.00;154891.13;5045462;28;20452;-77
2023/05/12 11:09:05;;;;;;;6.27;4.80;;;;;;;13.66;100.00;154867.78;5032704;28;20446;-77
2023/05/12 11:11:34;;;;;;;5.70;4.23;;;;;;;13.56;100.00;154841.78;5034023;28;20482;-77